KDTW/DTW METAR and TAF weather

Enter ICAO airport designator
Station Type Date Time Source
KDTW METAR 2020/07/02 20:53 UTC NOAA

KDTW 022053Z 16010KT 10SM SCT070 31/17 A3000 RMK AO2 SLP155 T03060172 56008


Station Type Date Time Source
KDTW Decoded METAR 2020/07/02 20:53 UTC NOAA

DETROIT METROPOLITAN, MI, United States (KDTW) 42-14N 83-20W 195M
Jul 02, 2020 - 04:53 PM EDT / 2020.07.02 2053 UTC
Wind: from the SSE (160 degrees) at 12 MPH (10 KT):0
Visibility: 10 mile(s):0
Sky conditions: partly cloudy
Temperature: 87.1 F (30.6 C)
Dew Point: 63.0 F (17.2 C)
Relative Humidity: 44%
Pressure (altimeter): 30 in. Hg (1015 hPa)
Pressure tendency: 0.02 inches (0.8 hPa) lower than three hours ago
ob: KDTW 022053Z 16010KT 10SM SCT070 31/17 A3000 RMK AO2 SLP155 T03060172 56008
cycle: 21

Station Type Date Time Source
KDTW TAF 2020/07/02 18:30 UTC NOAA

TAF KDTW 021729Z 0218/0324 34004KT P6SM SCT060 SCT250
FM021900 16006KT P6SM FEW080 SCT250
FM030200 28004KT P6SM SCT250

Example: see airport list